Time;durP1;ratioP1;P1;durP2;ratioP2;P2;SDS_P1;SDS_P2;PMS_P1;PMS_P2;Temp;Humidity;BMP_temperature;BMP_pressure;BME280_temperature;BME280_humidity;BME280_pressure;Samples;Min_cycle;Max_cycle;Signal;HPM_P1;HPM_P2
2023/01/29 00:01:51;;;;;;;;;;;;;;;2.79;68.68;103119.94;4973890;28;19926;-52
2023/01/29 00:04:17;;;;;;;;;;;;;;;2.77;68.82;103118.91;4969762;28;20311;-53
2023/01/29 00:06:43;;;;;;;;;;;;;;;2.73;68.87;103110.13;4970778;28;19971;-53
2023/01/29 00:09:08;;;;;;;;;;;;;;;2.74;68.78;103121.16;4968066;28;19979;-53
2023/01/29 00:11:34;;;;;;;;;;;;;;;2.72;68.91;103115.91;4971547;28;19923;-54
2023/01/29 00:13:59;;;;;;;;;;;;;;;2.74;69.06;103113.56;4964939;28;20020;-51
2023/01/29 00:16:24;;;;;;;;;;;;;;;2.72;68.93;103107.41;4972423;28;19926;-51
2023/01/29 00:18:50;;;;;;;;;;;;;;;2.73;68.90;103101.56;4971101;28;19919;-53
2023/01/29 00:21:16;;;;;;;;;;;;;;;2.72;68.90;103098.13;4968087;28;20519;-50
2023/01/29 00:23:42;;;;;;;;;;;;;;;2.72;68.99;103092.16;4970094;28;19977;-53
2023/01/29 00:26:07;;;;;;;;;;;;;;;2.71;68.87;103095.47;4967261;28;20353;-53
2023/01/29 00:28:33;;;;;;;;;;;;;;;2.70;68.85;103094.56;4977376;28;19972;-51
2023/01/29 00:31:05;;;;;;;;;;;;;;;2.70;68.83;103089.47;4967749;28;19918;-54
2023/01/29 00:33:30;;;;;;;;;;;;;;;2.71;69.24;103098.88;4969785;28;19926;-53
2023/01/29 00:35:56;;;;;;;;;;;;;;;2.72;69.07;103087.06;4973031;28;20338;-51
2023/01/29 00:38:21;;;;;;;;;;;;;;;2.73;68.93;103083.78;4973278;28;19922;-53
2023/01/29 00:46:14;;;;;;;;;;;;;;;2.69;69.17;103070.81;4969821;28;19936;-51
2023/01/29 00:48:39;;;;;;;;;;;;;;;2.68;69.17;103066.47;4973720;28;19926;-51
2023/01/29 00:51:04;;;;;;;;;;;;;;;2.65;69.07;103066.19;4978725;28;19962;-54
2023/01/29 00:53:29;;;;;;;;;;;;;;;2.62;69.04;103065.91;4970942;28;19962;-51
2023/01/29 00:55:55;;;;;;;;;;;;;;;2.60;69.26;103047.06;4965254;28;19937;-53
2023/01/29 00:58:21;;;;;;;;;;;;;;;2.59;69.16;103045.28;4967288;28;19922;-54
2023/01/29 01:00:47;;;;;;;;;;;;;;;2.59;69.08;103047.81;4968575;28;19922;-49
2023/01/29 01:03:13;;;;;;;;;;;;;;;2.60;69.38;103041.09;4971849;28;19918;-53
2023/01/29 01:05:38;;;;;;;;;;;;;;;2.60;69.13;103056.31;4972839;28;19928;-52
2023/01/29 01:10:19;;;;;;;;;;;;;;;2.59;69.16;103052.00;4966821;28;19922;-53
2023/01/29 01:10:56;;;;;;;;;;;;;;;2.57;69.15;103054.41;4973598;28;20031;-53
2023/01/29 01:13:22;;;;;;;;;;;;;;;2.54;69.33;103056.63;4973100;28;19971;-53
2023/01/29 01:15:47;;;;;;;;;;;;;;;2.53;69.31;103065.00;4969021;28;19926;-54
2023/01/29 01:18:14;;;;;;;;;;;;;;;2.52;69.45;103058.16;4967009;28;19926;-50
2023/01/29 01:20:40;;;;;;;;;;;;;;;2.51;69.16;103050.38;4971498;28;19968;-52
2023/01/29 01:23:05;;;;;;;;;;;;;;;2.52;69.37;103049.63;4964943;28;19965;-52
2023/01/29 01:25:31;;;;;;;;;;;;;;;2.52;69.49;103063.22;4982974;28;19960;-51
2023/01/29 01:27:57;;;;;;;;;;;;;;;2.55;69.38;103057.53;4973652;28;19947;-54
2023/01/29 01:30:23;;;;;;;;;;;;;;;2.53;69.33;103056.50;4971397;28;19926;-54
2023/01/29 01:32:48;;;;;;;;;;;;;;;2.50;69.64;103057.13;4977116;28;19926;-52
2023/01/29 01:35:14;;;;;;;;;;;;;;;2.53;69.56;103062.47;4977837;28;20384;-52
2023/01/29 01:37:39;;;;;;;;;;;;;;;2.52;69.70;103058.16;4968215;28;19965;-48
2023/01/29 01:40:11;;;;;;;;;;;;;;;2.54;69.74;103061.72;4971032;28;19963;-53
2023/01/29 01:42:37;;;;;;;;;;;;;;;2.53;69.78;103062.47;4966962;28;19926;-53
2023/01/29 01:45:06;;;;;;;;;;;;;;;2.53;69.46;103059.03;4996026;28;19921;-54
2023/01/29 01:47:46;;;;;;;;;;;;;;;2.52;69.71;103058.16;4994057;28;20420;-54
2023/01/29 01:50:14;;;;;;;;;;;;;;;2.52;69.64;103049.63;4982565;28;19926;-53
2023/01/29 01:52:43;;;;;;;;;;;;;;;2.52;69.66;103049.63;4999088;28;19941;-51
2023/01/29 01:55:11;;;;;;;;;;;;;;;2.52;69.86;103058.16;4975540;28;19922;-54
2023/01/29 01:57:36;;;;;;;;;;;;;;;2.51;69.65;103058.00;4974722;28;19979;-52
2023/01/29 02:00:08;;;;;;;;;;;;;;;2.49;69.99;103059.47;4987801;28;20387;-52
2023/01/29 02:10:47;;;;;;;;;;;;;;;2.50;69.97;103069.81;5017317;28;19976;-54
2023/01/29 02:13:15;;;;;;;;;;;;;;;2.51;70.08;103065.63;4992984;28;19969;-51
2023/01/29 02:15:47;;;;;;;;;;;;;;;2.50;69.66;103069.81;4980044;28;19926;-50
2023/01/29 02:18:13;;;;;;;;;;;;;;;2.52;69.96;103072.50;4993076;28;19925;-48
2023/01/29 02:20:40;;;;;;;;;;;;;;;2.51;69.76;103066.53;4992079;28;19954;-53
2023/01/29 02:23:26;;;;;;;;;;;;;;;2.52;70.01;103078.47;4985021;28;20639;-49
2023/01/29 02:25:54;;;;;;;;;;;;;;;2.51;70.13;103078.31;4982712;28;19967;-52
2023/01/29 02:28:36;;;;;;;;;;;;;;;2.51;69.90;103076.69;4998119;28;19921;-53
2023/01/29 02:31:11;;;;;;;;;;;;;;;2.49;70.02;103078.19;4979645;28;19926;-54
2023/01/29 02:33:57;;;;;;;;;;;;;;;2.49;70.32;103074.72;5005164;28;20147;-53
2023/01/29 02:36:37;;;;;;;;;;;;;;;2.49;70.35;103068.03;4977884;28;20055;-54
2023/01/29 02:39:03;;;;;;;;;;;;;;;2.50;70.08;103066.38;4994370;28;20093;-54
2023/01/29 02:41:30;;;;;;;;;;;;;;;2.50;70.43;103071.47;4996156;28;20525;-54
2023/01/29 02:44:15;;;;;;;;;;;;;;;2.49;70.49;103065.50;5007343;28;20399;-54
2023/01/29 02:46:51;;;;;;;;;;;;;;;2.51;70.27;103069.06;4993469;28;19918;-51
2023/01/29 02:49:26;;;;;;;;;;;;;;;2.51;70.31;103070.72;4991406;28;19926;-52
2023/01/29 02:52:02;;;;;;;;;;;;;;;2.50;70.33;103059.66;4990599;28;20368;-53
2023/01/29 02:54:45;;;;;;;;;;;;;;;2.51;70.45;103061.44;4976790;28;19922;-53
2023/01/29 02:57:17;;;;;;;;;;;;;;;2.51;70.71;103066.53;4978074;28;19964;-51
2023/01/29 02:59:46;;;;;;;;;;;;;;;2.52;70.51;103064.88;4972900;28;19919;-54
2023/01/29 03:02:15;;;;;;;;;;;;;;;2.52;70.57;103059.78;4993523;28;19924;-53
2023/01/29 03:04:45;;;;;;;;;;;;;;;2.52;70.66;103058.16;4980746;28;19924;-51
2023/01/29 03:07:39;;;;;;;;;;;;;;;2.54;70.76;103059.19;4972788;28;20428;-54
2023/01/29 03:10:01;;;;;;;;;;;;;;;2.53;70.64;103059.94;4974485;28;20013;-54
2023/01/29 03:12:32;;;;;;;;;;;;;;;2.55;70.79;103058.47;4980371;28;20295;-52
2023/01/29 03:15:11;;;;;;;;;;;;;;;2.57;70.96;103056.94;4977962;28;19926;-52
2023/01/29 03:17:46;;;;;;;;;;;;;;;2.56;70.62;103062.78;4969091;28;19918;-53
2023/01/29 03:20:14;;;;;;;;;;;;;;;2.58;70.84;103057.84;4981531;28;20400;-54
2023/01/29 03:22:43;;;;;;;;;;;;;;;2.59;70.65;103054.53;4986733;28;19925;-54
2023/01/29 03:34:03;;;;;;;;;;;;;;;2.58;70.91;103047.69;4991523;28;20019;-54
2023/01/29 03:36:36;;;;;;;;;;;;;;;2.58;70.92;103050.22;4990374;28;19922;-53
2023/01/29 03:39:03;;;;;;;;;;;;;;;2.58;70.82;103053.66;4978304;28;20510;-53
2023/01/29 03:41:32;;;;;;;;;;;;;;;2.59;71.03;103052.00;4989912;28;19922;-53
2023/01/29 03:43:57;;;;;;;;;;;;;;;2.59;70.96;103047.81;4999055;28;20421;-52
2023/01/29 03:46:32;;;;;;;;;;;;;;;2.59;71.22;103042.72;4987597;28;19918;-53
2023/01/29 03:49:07;;;;;;;;;;;;;;;2.59;71.29;103034.22;4992552;28;19929;-51
2023/01/29 03:51:47;;;;;;;;;;;;;;;2.60;71.27;103033.47;4987586;28;20286;-53
2023/01/29 03:54:35;;;;;;;;;;;;;;;2.60;71.20;103034.34;4988435;28;20406;-53
2023/01/29 03:57:04;;;;;;;;;;;;;;;2.59;71.29;103037.66;5000201;28;19918;-53
2023/01/29 03:59:45;;;;;;;;;;;;;;;2.59;71.32;103024.94;4989652;28;19934;-52
2023/01/29 04:02:14;;;;;;;;;;;;;;;2.62;71.37;103024.38;4971971;28;19995;-54
2023/01/29 04:04:41;;;;;;;;;;;;;;;2.63;71.26;103019.44;4970794;28;19918;-53
2023/01/29 04:07:11;;;;;;;;;;;;;;;2.64;71.40;103015.25;4981804;28;19922;-52
2023/01/29 04:09:49;;;;;;;;;;;;;;;2.64;71.49;103013.59;4971696;28;20436;-52
2023/01/29 04:12:18;;;;;;;;;;;;;;;2.66;71.36;103012.06;4974290;28;19953;-53
2023/01/29 04:14:45;;;;;;;;;;;;;;;2.68;71.38;103002.97;4977108;28;19971;-54
2023/01/29 04:17:31;;;;;;;;;;;;;;;2.68;71.25;103008.06;4972979;28;19926;-54
2023/01/29 04:19:58;;;;;;;;;;;;;;;2.69;71.40;103012.38;4972925;28;19918;-54
2023/01/29 04:22:26;;;;;;;;;;;;;;;2.69;71.38;103006.41;4980995;28;19913;-51
2023/01/29 04:24:52;;;;;;;;;;;;;;;2.71;71.71;103004.00;4970906;28;19925;-52
2023/01/29 04:27:19;;;;;;;;;;;;;;;2.69;71.54;103002.22;4997267;28;19916;-53
2023/01/29 04:29:53;;;;;;;;;;;;;;;2.70;71.58;103013.28;4981030;28;19926;-54
2023/01/29 04:32:36;;;;;;;;;;;;;;;2.71;71.81;103009.09;4988912;28;19949;-54
2023/01/29 04:35:16;;;;;;;;;;;;;;;2.71;71.75;102998.91;4983299;28;20372;-54
2023/01/29 04:37:53;;;;;;;;;;;;;;;2.71;71.86;102994.72;4989328;28;19926;-49
2023/01/29 04:40:22;;;;;;;;;;;;;;;2.71;71.79;102988.75;4983090;28;19963;-53
2023/01/29 04:43:00;;;;;;;;;;;;;;;2.71;71.99;102984.56;5007559;28;19922;-53
2023/01/29 04:45:26;;;;;;;;;;;;;;;2.69;72.11;102974.28;4988119;28;19926;-53
2023/01/29 04:48:11;;;;;;;;;;;;;;;2.69;71.96;102971.75;5004703;28;19933;-54
2023/01/29 04:50:43;;;;;;;;;;;;;;;2.69;72.02;102971.75;5000369;28;19946;-53
2023/01/29 04:53:11;;;;;;;;;;;;;;;2.67;72.24;102963.09;5013480;28;19918;-54
2023/01/29 04:55:44;;;;;;;;;;;;;;;2.67;72.12;102968.16;4975795;28;20355;-53
2023/01/29 04:58:24;;;;;;;;;;;;;;;2.67;72.25;102950.38;5022355;28;19923;-54
2023/01/29 05:00:52;;;;;;;;;;;;;;;2.66;72.18;102951.13;4989477;28;20346;-54
2023/01/29 05:03:18;;;;;;;;;;;;;;;2.66;72.49;102960.38;5009334;28;19944;-54
2023/01/29 05:05:46;;;;;;;;;;;;;;;2.64;72.43;102952.63;4985804;28;19929;-50
2023/01/29 05:08:13;;;;;;;;;;;;;;;2.63;72.68;102966.09;5013278;28;19920;-53
2023/01/29 05:10:39;;;;;;;;;;;;;;;2.65;72.42;102966.22;5003980;28;20380;-53
2023/01/29 05:13:07;;;;;;;;;;;;;;;2.64;72.65;102959.34;4999215;28;19962;-54
2023/01/29 05:15:35;;;;;;;;;;;;;;;2.64;72.63;102955.16;4984633;28;19929;-54
2023/01/29 05:18:01;;;;;;;;;;;;;;;2.65;72.69;102950.97;4993480;28;20417;-52
2023/01/29 05:20:29;;;;;;;;;;;;;;;2.66;72.57;102953.66;4995818;28;19967;-53
2023/01/29 05:22:55;;;;;;;;;;;;;;;2.68;72.54;102943.66;4987831;28;19926;-53
2023/01/29 05:25:22;;;;;;;;;;;;;;;2.68;72.86;102938.59;4981989;28;19929;-50
2023/01/29 05:28:10;;;;;;;;;;;;;;;2.69;72.61;102925.13;4981679;28;20371;-52
2023/01/29 05:30:36;;;;;;;;;;;;;;;2.68;72.98;102919.16;4975485;28;19998;-52
2023/01/29 05:33:03;;;;;;;;;;;;;;;2.67;72.90;102914.81;4989763;28;20015;-51
2023/01/29 05:35:28;;;;;;;;;;;;;;;2.67;73.00;102924.09;4970449;28;19922;-54
2023/01/29 05:37:54;;;;;;;;;;;;;;;2.68;72.87;102931.84;4991699;28;20016;-54
2023/01/29 05:40:20;;;;;;;;;;;;;;;2.67;72.95;102931.72;4993232;28;19976;-53
2023/01/29 05:42:45;;;;;;;;;;;;;;;2.67;73.28;102934.25;4991194;28;20001;-51
2023/01/29 05:45:10;;;;;;;;;;;;;;;2.68;73.20;102938.59;4982102;28;19926;-50
2023/01/29 05:47:35;;;;;;;;;;;;;;;2.69;73.28;102942.91;4991812;28;19922;-51
2023/01/29 05:50:01;;;;;;;;;;;;;;;2.69;73.26;102945.44;4997686;28;19922;-53
2023/01/29 05:52:26;;;;;;;;;;;;;;;2.71;73.09;102951.56;4986372;28;20063;-53
2023/01/29 05:54:51;;;;;;;;;;;;;;;2.72;73.28;102953.34;4985923;28;19972;-54
2023/01/29 05:57:16;;;;;;;;;;;;;;;2.73;73.08;102956.75;4994234;28;19961;-54
2023/01/29 05:59:42;;;;;;;;;;;;;;;2.75;73.10;102955.28;4975043;28;19926;-52
2023/01/29 06:02:07;;;;;;;;;;;;;;;2.77;73.14;102948.69;4989714;28;19929;-54
2023/01/29 06:04:32;;;;;;;;;;;;;;;2.77;73.26;102956.31;4971682;28;19984;-54
2023/01/29 06:06:57;;;;;;;;;;;;;;;2.79;73.21;102952.25;4987286;28;19934;-52
2023/01/29 06:09:23;;;;;;;;;;;;;;;2.81;73.05;102950.78;4987324;28;20379;-52
2023/01/29 06:11:48;;;;;;;;;;;;;;;2.81;72.95;102950.78;4981252;28;20087;-53
2023/01/29 06:14:13;;;;;;;;;;;;;;;2.81;73.11;102960.94;4985512;28;19924;-53
2023/01/29 06:16:38;;;;;;;;;;;;;;;2.83;73.21;102964.50;5013816;28;19920;-50
2023/01/29 06:19:04;;;;;;;;;;;;;;;2.83;73.08;102975.56;4989597;28;19923;-50
2023/01/29 06:21:29;;;;;;;;;;;;;;;2.84;73.20;102979.88;4987961;28;19922;-54
2023/01/29 06:23:55;;;;;;;;;;;;;;;2.86;73.26;102974.97;4995923;28;19925;-53
2023/01/29 06:26:20;;;;;;;;;;;;;;;2.86;73.18;102965.69;5005673;28;19926;-52
2023/01/29 06:28:49;;;;;;;;;;;;;;;2.86;73.14;102942.81;4990495;28;19934;-50
2023/01/29 06:31:14;;;;;;;;;;;;;;;2.87;73.16;102936.09;4978245;28;19918;-53
2023/01/29 06:33:39;;;;;;;;;;;;;;;2.87;73.31;102925.94;4982243;28;19926;-50
2023/01/29 06:36:05;;;;;;;;;;;;;;;2.87;73.48;102916.66;4997632;28;19928;-52
2023/01/29 06:38:30;;;;;;;;;;;;;;;2.87;73.29;102915.75;4993302;28;19954;-54
2023/01/29 06:40:56;;;;;;;;;;;;;;;2.87;73.59;102931.00;4993110;28;20616;-49
2023/01/29 06:43:22;;;;;;;;;;;;;;;2.86;73.26;102934.31;4985600;28;19918;-54
2023/01/29 06:45:51;;;;;;;;;;;;;;;2.86;73.63;102929.22;4992590;28;19926;-54
2023/01/29 06:48:16;;;;;;;;;;;;;;;2.88;73.44;102920.09;4989609;28;20349;-53
2023/01/29 06:50:42;;;;;;;;;;;;;;;2.86;73.76;102927.56;4992258;28;19931;-48
2023/01/29 06:53:07;;;;;;;;;;;;;;;2.85;73.78;102928.34;4976289;28;19940;-53
2023/01/29 06:55:33;;;;;;;;;;;;;;;2.85;73.60;102922.31;4990397;28;19922;-51
2023/01/29 06:57:58;;;;;;;;;;;;;;;2.87;73.70;102929.34;5010247;28;19922;-54
2023/01/29 07:00:23;;;;;;;;;;;;;;;2.89;73.72;102924.41;4987473;28;19931;-52
2023/01/29 07:02:49;;;;;;;;;;;;;;;2.88;73.54;102920.97;4968791;28;19928;-53
2023/01/29 07:05:14;;;;;;;;;;;;;;;2.88;73.72;102925.16;4989239;28;19961;-53
2023/01/29 07:07:39;;;;;;;;;;;;;;;2.87;73.70;102921.72;4975744;28;19926;-54
2023/01/29 07:10:05;;;;;;;;;;;;;;;2.88;73.88;102927.72;5000791;28;19934;-54
2023/01/29 07:12:30;;;;;;;;;;;;;;;2.87;73.62;102926.81;4988185;28;19954;-49
2023/01/29 07:14:55;;;;;;;;;;;;;;;2.88;73.82;102935.34;4983334;28;19929;-50
2023/01/29 07:17:21;;;;;;;;;;;;;;;2.85;73.84;102928.34;5000973;28;19920;-54
2023/01/29 07:19:46;;;;;;;;;;;;;;;2.87;73.96;102933.56;4992533;28;19929;-48
2023/01/29 07:22:11;;;;;;;;;;;;;;;2.87;73.80;102929.34;5007803;28;21211;-54
2023/01/29 07:24:36;;;;;;;;;;;;;;;2.88;73.71;102932.78;4978188;28;19922;-53
2023/01/29 07:27:02;;;;;;;;;;;;;;;2.87;73.72;102933.56;4993000;28;19930;-49
2023/01/29 07:29:27;;;;;;;;;;;;;;;2.89;73.73;102932.03;4986279;28;19928;-53
2023/01/29 07:31:52;;;;;;;;;;;;;;;2.89;73.83;102921.88;4985207;28;19957;-53
2023/01/29 07:34:17;;;;;;;;;;;;;;;2.89;73.73;102925.28;4972888;28;19926;-54
2023/01/29 07:36:42;;;;;;;;;;;;;;;2.88;73.72;102920.97;4982190;28;19923;-54
2023/01/29 07:39:08;;;;;;;;;;;;;;;2.89;73.76;102921.88;5001652;28;20011;-54
2023/01/29 07:41:33;;;;;;;;;;;;;;;2.88;73.69;102920.97;4988424;28;19966;-53
2023/01/29 07:43:58;;;;;;;;;;;;;;;2.90;73.69;102919.47;4984727;28;19984;-53
2023/01/29 07:46:23;;;;;;;;;;;;;;;2.92;73.77;102922.16;4997041;28;20453;-53
2023/01/29 07:48:49;;;;;;;;;;;;;;;2.91;73.94;102930.50;5009644;28;20376;-51
2023/01/29 07:51:15;;;;;;;;;;;;;;;2.92;73.96;102934.88;4982447;28;19932;-54
2023/01/29 07:53:43;;;;;;;;;;;;;;;2.93;73.74;102931.56;4981504;28;19937;-54
2023/01/29 07:56:08;;;;;;;;;;;;;;;2.94;73.77;102924.06;4974827;28;19926;-53
2023/01/29 07:58:33;;;;;;;;;;;;;;;2.94;73.85;102921.53;5009778;28;19928;-54
2023/01/29 08:00:59;;;;;;;;;;;;;;;2.95;73.78;102907.19;4974628;28;19933;-53
2023/01/29 08:03:24;;;;;;;;;;;;;;;2.94;73.87;102916.44;4984629;28;19926;-51
2023/01/29 08:05:49;;;;;;;;;;;;;;;2.96;73.77;102919.13;4979071;28;20005;-53
2023/01/29 08:08:15;;;;;;;;;;;;;;;2.96;73.78;102911.50;4975781;28;20303;-51
2023/01/29 08:10:40;;;;;;;;;;;;;;;2.96;73.69;102914.94;4993690;28;19929;-51
2023/01/29 08:13:06;;;;;;;;;;;;;;;2.97;73.82;102915.81;4977890;28;19922;-54
2023/01/29 08:15:31;;;;;;;;;;;;;;;2.97;73.79;102915.81;4995412;28;19918;-52
2023/01/29 08:17:57;;;;;;;;;;;;;;;2.99;73.96;102911.81;4974784;28;19918;-54
2023/01/29 08:20:22;;;;;;;;;;;;;;;2.99;73.92;102908.38;4986938;28;19975;-53
2023/01/29 08:22:47;;;;;;;;;;;;;;;2.99;73.80;102901.63;4976953;28;20027;-54
2023/01/29 08:25:13;;;;;;;;;;;;;;;3.00;73.93;102897.44;4973993;28;20005;-52
2023/01/29 08:27:39;;;;;;;;;;;;;;;3.00;73.81;102892.34;4981774;28;19933;-53
2023/01/29 08:30:05;;;;;;;;;;;;;;;3.02;73.61;102901.91;4976649;28;19922;-54
2023/01/29 08:32:30;;;;;;;;;;;;;;;3.04;73.93;102889.34;4974870;28;19997;-49
2023/01/29 08:34:55;;;;;;;;;;;;;;;3.02;73.72;102880.66;4987524;28;19929;-53
2023/01/29 08:37:20;;;;;;;;;;;;;;;3.03;73.58;102869.75;4978177;28;19926;-54
2023/01/29 08:39:46;;;;;;;;;;;;;;;3.03;73.56;102870.63;4985383;28;19922;-51
2023/01/29 08:42:11;;;;;;;;;;;;;;;3.04;73.57;102869.03;4993761;28;19929;-51
2023/01/29 08:44:36;;;;;;;;;;;;;;;3.02;73.55;102858.69;4974385;28;19926;-55
2023/01/29 08:47:01;;;;;;;;;;;;;;;3.04;73.71;102863.94;4991283;28;20614;-52
2023/01/29 08:49:27;;;;;;;;;;;;;;;3.04;73.49;102866.47;4985059;28;19934;-52
2023/01/29 08:51:55;;;;;;;;;;;;;;;3.07;73.66;102876.91;5003954;28;20011;-50
2023/01/29 08:54:20;;;;;;;;;;;;;;;3.07;73.82;102874.34;4973252;28;19922;-54
2023/01/29 08:56:46;;;;;;;;;;;;;;;3.07;73.78;102877.78;4980405;28;19929;-52
2023/01/29 08:59:11;;;;;;;;;;;;;;;3.09;73.78;102877.91;4986359;28;19924;-48
2023/01/29 09:01:36;;;;;;;;;;;;;;;3.09;73.58;102876.28;5012515;28;20410;-48
2023/01/29 09:04:02;;;;;;;;;;;;;;;3.11;73.65;102877.31;5011436;28;19920;-53
2023/01/29 09:06:27;;;;;;;;;;;;;;;3.12;73.39;102878.22;4989875;28;19922;-51
2023/01/29 09:08:52;;;;;;;;;;;;;;;3.14;73.48;102879.25;4996303;28;20406;-54
2023/01/29 09:11:17;;;;;;;;;;;;;;;3.14;73.46;102867.41;4982044;28;19927;-54
2023/01/29 09:13:43;;;;;;;;;;;;;;;3.15;73.37;102861.56;4996932;28;20483;-49
2023/01/29 09:16:08;;;;;;;;;;;;;;;3.17;73.27;102862.63;4990604;28;20591;-53
2023/01/29 09:18:33;;;;;;;;;;;;;;;3.19;73.26;102860.22;4998699;28;20017;-53
2023/01/29 09:20:58;;;;;;;;;;;;;;;3.20;73.15;102856.91;4981055;28;19951;-51
2023/01/29 09:23:24;;;;;;;;;;;;;;;3.21;73.23;102862.13;4983858;28;19922;-52
2023/01/29 09:25:49;;;;;;;;;;;;;;;3.22;73.19;102861.38;4978989;28;19965;-53
2023/01/29 09:28:16;;;;;;;;;;;;;;;3.20;73.09;102850.16;4978559;28;19941;-48
2023/01/29 09:30:42;;;;;;;;;;;;;;;3.23;73.17;102857.19;4980614;28;19927;-54
2023/01/29 09:33:07;;;;;;;;;;;;;;;3.25;73.08;102850.59;4981265;28;19926;-53
2023/01/29 09:35:32;;;;;;;;;;;;;;;3.26;72.86;102846.41;4967747;28;20326;-52
2023/01/29 09:37:57;;;;;;;;;;;;;;;3.27;72.89;102853.25;4972116;28;19961;-46
2023/01/29 09:40:25;;;;;;;;;;;;;;;3.27;72.83;102856.69;4988393;28;20011;-49
2023/01/29 09:43:03;;;;;;;;;;;;;;;3.28;72.71;102860.16;4984451;28;19920;-51
2023/01/29 09:45:29;;;;;;;;;;;;;;;3.29;72.67;102862.81;4985946;28;19920;-52
2023/01/29 09:48:02;;;;;;;;;;;;;;;3.28;72.88;102861.03;4997950;28;19973;-53
2023/01/29 09:50:38;;;;;;;;;;;;;;;3.31;72.49;102868.03;4994112;28;19930;-52
2023/01/29 09:53:12;;;;;;;;;;;;;;;3.32;72.82;102858.00;4986927;28;19922;-52
2023/01/29 09:55:44;;;;;;;;;;;;;;;3.34;72.61;102853.06;4989461;28;20354;-53
2023/01/29 09:58:17;;;;;;;;;;;;;;;3.35;72.49;102868.47;4976106;28;20306;-52
2023/01/29 10:01:01;;;;;;;;;;;;;;;3.38;72.61;102860.19;4986286;28;19922;-51
2023/01/29 10:03:29;;;;;;;;;;;;;;;3.40;72.33;102856.16;4991694;28;20007;-53
2023/01/29 10:05:57;;;;;;;;;;;;;;;3.39;72.42;102860.31;4986978;28;19977;-51
2023/01/29 10:08:41;;;;;;;;;;;;;;;3.40;72.21;102862.13;4980198;28;19977;-52
2023/01/29 10:11:25;;;;;;;;;;;;;;;3.41;72.28;102858.84;4974873;28;19922;-52
2023/01/29 10:14:08;;;;;;;;;;;;;;;3.45;72.23;102862.53;5003694;28;19977;-53
2023/01/29 10:16:54;;;;;;;;;;;;;;;3.46;72.10;102861.78;4990265;28;19987;-52
2023/01/29 10:19:31;;;;;;;;;;;;;;;3.48;71.96;102855.19;4972490;28;20013;-53
2023/01/29 10:22:15;;;;;;;;;;;;;;;3.50;72.02;102864.72;4970342;28;19977;-53
2023/01/29 10:24:49;;;;;;;;;;;;;;;3.52;71.83;102866.50;4995480;28;19923;-51
2023/01/29 10:27:16;;;;;;;;;;;;;;;3.51;71.84;102857.97;4971227;28;19922;-52
2023/01/29 10:29:42;;;;;;;;;;;;;;;3.54;71.57;102860.81;4969093;28;19923;-53
2023/01/29 10:32:13;;;;;;;;;;;;;;;3.52;71.65;102852.16;4970122;28;20020;-50
2023/01/29 10:35:02;;;;;;;;;;;;;;;3.54;71.73;102855.72;4974223;28;19929;-53
2023/01/29 10:37:39;;;;;;;;;;;;;;;3.57;71.85;102853.44;4968631;28;19926;-53
2023/01/29 10:40:27;;;;;;;;;;;;;;;3.57;71.89;102855.97;4973431;28;20387;-53
2023/01/29 10:42:56;;;;;;;;;;;;;;;3.59;71.98;102846.84;4969777;28;19928;-52
2023/01/29 10:45:28;;;;;;;;;;;;;;;3.61;71.66;102849.50;4966771;28;20442;-53
2023/01/29 10:48:06;;;;;;;;;;;;;;;3.61;71.79;102847.84;4991496;28;19924;-53
2023/01/29 10:50:40;;;;;;;;;;;;;;;3.64;71.74;102845.59;4971478;28;20024;-53
2023/01/29 10:53:11;;;;;;;;;;;;;;;3.66;71.85;102841.53;4977321;28;19918;-50
2023/01/29 10:55:36;;;;;;;;;;;;;;;3.67;71.40;102835.66;4971288;28;19926;-51
2023/01/29 10:58:11;;;;;;;;;;;;;;;3.69;71.58;102831.59;4970714;28;19941;-53
2023/01/29 11:00:37;;;;;;;;;;;;;;;3.70;71.58;102817.22;4999940;28;20037;-48
2023/01/29 11:03:16;;;;;;;;;;;;;;;3.71;71.76;102822.47;4983929;28;19922;-53
2023/01/29 11:05:45;;;;;;;;;;;;;;;3.74;71.76;102812.53;4972575;28;19918;-52
2023/01/29 11:08:13;;;;;;;;;;;;;;;3.77;71.76;102809.38;4969918;28;19918;-53
2023/01/29 11:11:05;;;;;;;;;;;;;;;3.79;71.70;102804.44;4982170;28;20431;-53
2023/01/29 11:13:33;;;;;;;;;;;;;;;3.80;71.74;102783.31;4963702;28;19925;-53
2023/01/29 11:15:58;;;;;;;;;;;;;;;3.82;71.68;102780.13;4972917;28;19964;-53
2023/01/29 11:18:23;;;;;;;;;;;;;;;3.85;71.43;102766.78;4975090;28;20302;-53
2023/01/29 11:20:58;;;;;;;;;;;;;;;3.87;71.53;102772.88;4979837;28;19933;-51
2023/01/29 11:23:29;;;;;;;;;;;;;;;3.89;71.72;102767.19;4969716;28;19924;-53
2023/01/29 11:25:55;;;;;;;;;;;;;;;3.90;71.30;102761.31;4975684;28;19918;-53
2023/01/29 11:28:36;;;;;;;;;;;;;;;3.91;71.04;102759.66;4969724;28;20389;-48
2023/01/29 11:31:01;;;;;;;;;;;;;;;3.90;70.92;102747.72;4972442;28;20485;-51
2023/01/29 11:33:27;;;;;;;;;;;;;;;3.92;70.76;102748.72;4959344;28;19926;-51
2023/01/29 11:35:52;;;;;;;;;;;;;;;3.91;71.13;102737.66;4972457;28;19937;-50
2023/01/29 11:38:20;;;;;;;;;;;;;;;3.94;71.28;102739.53;4974574;28;19928;-51
2023/01/29 11:40:47;;;;;;;;;;;;;;;3.95;71.07;102739.69;4969549;28;20034;-51
2023/01/29 11:43:15;;;;;;;;;;;;;;;3.97;70.96;102733.06;4960435;28;20581;-49
2023/01/29 11:45:40;;;;;;;;;;;;;;;3.99;70.57;102735.75;4970181;28;20009;-52
2023/01/29 11:48:13;;;;;;;;;;;;;;;4.00;71.08;102729.88;4965350;28;20369;-53
2023/01/29 11:50:39;;;;;;;;;;;;;;;4.01;71.13;102727.50;4982331;28;20405;-49
2023/01/29 11:53:05;;;;;;;;;;;;;;;4.03;71.06;102722.53;4969725;28;19930;-52
2023/01/29 11:55:33;;;;;;;;;;;;;;;4.04;70.54;102715.00;4972785;28;19922;-53
2023/01/29 11:58:03;;;;;;;;;;;;;;;4.06;70.53;102704.94;4977413;28;20410;-52
2023/01/29 12:00:30;;;;;;;;;;;;;;;4.06;70.69;102699.84;4976559;28;20067;-50
2023/01/29 12:03:11;;;;;;;;;;;;;;;4.08;70.34;102690.72;4972100;28;19918;-52
2023/01/29 12:05:37;;;;;;;;;;;;;;;4.09;70.46;102692.47;4968814;28;19961;-52
2023/01/29 12:08:02;;;;;;;;;;;;;;;4.11;70.40;102690.94;4972259;28;19937;-53
2023/01/29 12:10:35;;;;;;;;;;;;;;;4.14;70.70;102691.22;4968670;28;19929;-50
2023/01/29 12:13:21;;;;;;;;;;;;;;;4.14;70.46;102688.66;4974425;28;19980;-51
2023/01/29 12:15:47;;;;;;;;;;;;;;;4.15;70.44;102679.38;4968210;28;19981;-53
2023/01/29 12:18:12;;;;;;;;;;;;;;;4.16;70.42;102676.06;4966115;28;20343;-47
2023/01/29 12:20:44;;;;;;;;;;;;;;;4.17;70.65;102677.84;4970775;28;19918;-51
2023/01/29 12:23:09;;;;;;;;;;;;;;;4.18;70.41;102662.69;4967921;28;20413;-52
2023/01/29 12:25:35;;;;;;;;;;;;;;;4.18;70.37;102662.69;4974624;28;19922;-53
2023/01/29 12:28:06;;;;;;;;;;;;;;;4.19;70.57;102663.59;4970318;28;19926;-53
2023/01/29 12:30:50;;;;;;;;;;;;;;;4.21;70.54;102667.16;4974113;28;19922;-53
2023/01/29 12:33:37;;;;;;;;;;;;;;;4.22;70.63;102654.53;4974889;28;20390;-50
2023/01/29 12:36:12;;;;;;;;;;;;;;;4.25;70.82;102653.91;4970779;28;20212;-53
2023/01/29 12:38:39;;;;;;;;;;;;;;;4.25;71.03;102647.16;4975429;28;20383;-52
2023/01/29 12:41:08;;;;;;;;;;;;;;;4.27;70.87;102638.00;4972923;28;21021;-53
2023/01/29 12:43:33;;;;;;;;;;;;;;;4.28;70.77;102642.31;4966756;28;20011;-53
2023/01/29 12:46:00;;;;;;;;;;;;;;;4.28;70.87;102638.88;4971049;28;19922;-50
2023/01/29 12:48:30;;;;;;;;;;;;;;;4.28;71.04;102632.13;4979120;28;20320;-50
2023/01/29 12:50:58;;;;;;;;;;;;;;;4.30;71.09;102616.97;4970381;28;19936;-53
2023/01/29 12:53:39;;;;;;;;;;;;;;;4.32;71.03;102618.00;4979445;28;19933;-53
2023/01/29 12:56:13;;;;;;;;;;;;;;;4.34;71.29;102616.44;4975263;28;19953;-51
2023/01/29 12:58:47;;;;;;;;;;;;;;;4.35;71.18;102615.69;4968904;28;20393;-52
2023/01/29 13:01:26;;;;;;;;;;;;;;;4.35;71.33;102602.94;4971663;28;20055;-49
2023/01/29 13:03:57;;;;;;;;;;;;;;;4.36;71.19;102606.38;4979944;28;19969;-53
2023/01/29 13:06:31;;;;;;;;;;;;;;;4.37;71.03;102597.97;4973970;28;19926;-53
2023/01/29 13:08:58;;;;;;;;;;;;;;;4.38;71.36;102589.59;4971567;28;19930;-47
2023/01/29 13:11:33;;;;;;;;;;;;;;;4.38;71.24;102590.47;4971592;28;19921;-53
2023/01/29 13:14:00;;;;;;;;;;;;;;;4.40;71.60;102588.03;4967871;28;19996;-53
2023/01/29 13:16:28;;;;;;;;;;;;;;;4.41;71.38;102590.69;4974435;28;19933;-53
2023/01/29 13:18:59;;;;;;;;;;;;;;;4.43;71.40;102584.09;4970767;28;19961;-52
2023/01/29 13:21:26;;;;;;;;;;;;;;;4.44;71.69;102579.88;4976104;28;19918;-54